createdAt,value
2023-05-04T00:01:38.301Z,108.64548494983278
2023-05-04T00:08:01.834Z,131.71571906354515
2023-05-04T00:20:11.369Z,114.89966555183946
2023-05-04T00:26:33.012Z,112.3010033444816
2023-05-04T00:32:56.174Z,113.05351170568562
2023-05-04T00:39:32.341Z,111.81939799331104
2023-05-04T00:45:53.025Z,106.8561872909699
2023-05-04T00:52:14.682Z,105.25083612040133
2023-05-04T00:59:01.397Z,115.99665551839465
2023-05-04T01:05:23.442Z,109.75919732441471
2023-05-04T01:16:05.544Z,113.71571906354515
2023-05-04T01:22:30.026Z,111.82943143812709
2023-05-04T01:28:52.462Z,118.59531772575251
2023-05-04T01:35:12.497Z,102.02341137123746
2023-05-04T01:41:37.284Z,107.09364548494983
2023-05-04T01:48:00.708Z,108.05685618729098
2023-05-04T01:54:22.675Z,105.22742474916387
2023-05-04T02:03:40.624Z,102.1571906354515
2023-05-04T02:10:01.503Z,89.1371237458194
2023-05-04T02:16:25.376Z,94.28428093645485
2023-05-04T02:22:48.215Z,95.68227424749163
2023-05-04T02:29:11.049Z,90.44147157190635
2023-05-04T02:36:53.427Z,88.27759197324414
2023-05-04T02:43:14.089Z,88.82274247491638
2023-05-04T02:49:36.301Z,89.8695652173913
2023-05-04T03:00:00.920Z,83.36120401337793
2023-05-04T03:06:20.938Z,78.60535117056857
2023-05-04T03:18:04.203Z,74.49498327759197
2023-05-04T03:24:23.903Z,78.29431438127091
2023-05-04T03:30:44.314Z,71.6923076923077
2023-05-04T03:39:33.800Z,73.73913043478261
2023-05-04T03:45:55.225Z,73.35451505016722
2023-05-04T03:52:15.728Z,69.33444816053512
2023-05-04T03:58:37.761Z,72.74581939799332
2023-05-04T04:09:18.262Z,71.40802675585284
2023-05-04T04:15:42.793Z,65.91304347826087
2023-05-04T04:22:06.157Z,70.45484949832776
2023-05-04T04:42:23.736Z,72.07357859531773
2023-05-04T04:54:38.225Z,68.68227424749163
2023-05-04T05:01:08.498Z,69.27090301003345
2023-05-04T05:07:56.019Z,61.240802675585286
2023-05-04T05:21:16.175Z,64.49498327759197
2023-05-04T05:27:38.995Z,59.25418060200669
2023-05-04T05:34:02.192Z,61.792642140468224
2023-05-04T05:40:36.498Z,57.40133779264214
2023-05-04T05:47:00.388Z,55.18394648829432
2023-05-04T05:53:22.674Z,46.719063545150505
2023-05-04T06:02:15.650Z,50.62207357859532
2023-05-04T06:08:37.079Z,44.20066889632107
2023-05-04T06:14:58.864Z,50.103678929765884
2023-05-04T06:21:21.183Z,51.8561872909699
2023-05-04T06:27:42.741Z,49.08361204013378
2023-05-04T06:46:31.457Z,44.37792642140468
2023-05-04T07:01:24.223Z,38.558528428093645
2023-05-04T07:07:45.534Z,34.096989966555185
2023-05-04T07:14:09.761Z,36.063545150501675
2023-05-04T07:20:32.211Z,32.62876254180602
2023-05-04T07:26:53.894Z,30.889632107023413
2023-05-04T07:33:16.805Z,33.00334448160535
2023-05-04T07:39:39.467Z,25.29096989966555
2023-05-04T07:46:00.908Z,26.54180602006689
2023-05-04T07:56:16.683Z,26.39799331103679
2023-05-04T08:02:43.850Z,22.42809364548495
2023-05-04T08:09:05.589Z,22.103678929765888
2023-05-04T08:15:27.022Z,25.39464882943144
2023-05-04T08:21:49.834Z,24.127090301003346
2023-05-04T08:28:11.893Z,20.642140468227424
2023-05-04T08:34:32.579Z,18.752508361204015
2023-05-04T08:47:06.705Z,21.54515050167224
2023-05-04T08:53:27.116Z,17.775919732441473
2023-05-04T08:59:55.944Z,19.307692307692307
2023-05-04T09:09:33.805Z,22.046822742474916
2023-05-04T09:15:54.425Z,25.34113712374582
2023-05-04T09:22:15.054Z,25.83277591973244
2023-05-04T09:28:35.430Z,22.51505016722408
2023-05-04T09:34:56.382Z,23.51170568561873
2023-05-04T09:41:16.560Z,27.869565217391305
2023-05-04T09:47:38.007Z,25.695652173913043
2023-05-04T09:53:58.159Z,26.120401337792643
2023-05-04T10:00:18.960Z,23.277591973244146
2023-05-04T10:06:39.782Z,21.076923076923077
2023-05-04T10:13:01.306Z,24.297658862876254
2023-05-04T10:19:21.973Z,24.090301003344482
2023-05-04T10:25:42.222Z,29.896321070234112
2023-05-04T10:44:59.276Z,24.45819397993311
2023-05-04T10:51:20.813Z,20.91973244147157
2023-05-04T11:03:03.344Z,19.953177257525084
2023-05-04T11:09:24.761Z,21.889632107023413
2023-05-04T11:20:01.303Z,21.434782608695652
2023-05-04T11:29:47.194Z,20.993311036789297
2023-05-04T11:36:08.259Z,16.48494983277592
2023-05-04T11:42:29.798Z,13.996655518394649
2023-05-04T11:48:50.804Z,19.62541806020067
2023-05-04T11:55:12.758Z,17.789297658862875
2023-05-04T12:01:34.445Z,18.421404682274247
2023-05-04T12:07:55.849Z,17.28428093645485
2023-05-04T12:14:17.355Z,13.153846153846153
2023-05-04T12:23:36.491Z,12.775919732441471
2023-05-04T12:30:35.489Z,14.66220735785953
2023-05-04T12:36:57.050Z,16.20066889632107
2023-05-04T12:45:13.962Z,18.57190635451505
2023-05-04T12:51:34.783Z,12.642140468227424
2023-05-04T13:00:20.326Z,18.247491638795985
2023-05-04T13:06:42.049Z,17.82608695652174
2023-05-04T13:13:02.660Z,12.866220735785953
2023-05-04T13:19:23.648Z,19.317725752508363
2023-05-04T13:25:44.298Z,19.34113712374582
2023-05-04T13:32:05.637Z,21.91973244147157
2023-05-04T13:38:25.803Z,15.966555183946488
2023-05-04T13:46:42.785Z,18.016722408026755
2023-05-04T13:56:06.186Z,23.93645484949833
2023-05-04T14:02:26.758Z,17.013377926421406
2023-05-04T14:08:48.326Z,18.632107023411372
2023-05-04T14:15:09.380Z,20.354515050167223
2023-05-04T14:23:01.908Z,21.37458193979933
2023-05-04T14:29:22.879Z,17.53846153846154
2023-05-04T14:35:43.663Z,15.397993311036789
2023-05-04T14:42:04.963Z,18.107023411371237
2023-05-04T14:48:25.989Z,17.13377926421405
2023-05-04T14:54:46.473Z,15.91304347826087
2023-05-04T15:01:06.862Z,16.762541806020067
2023-05-04T15:07:26.886Z,15.705685618729097
2023-05-04T15:13:47.203Z,14.652173913043478
2023-05-04T15:20:14.781Z,17.88628762541806
2023-05-04T15:26:35.617Z,16.959866220735787
2023-05-04T15:32:55.866Z,21.046822742474916
2023-05-04T15:39:17.484Z,15.387959866220736
2023-05-04T15:45:37.854Z,15.40133779264214
2023-05-04T15:52:10.054Z,16.62876254180602
2023-05-04T15:59:20.638Z,18.36454849498328
2023-05-04T16:05:41.368Z,17.652173913043477
2023-05-04T16:12:02.151Z,17.682274247491637
2023-05-04T16:18:22.361Z,19.42809364548495
2023-05-04T16:24:42.479Z,19.334448160535118
2023-05-04T16:31:03.145Z,19.110367892976587
2023-05-04T16:37:23.051Z,20.785953177257525
2023-05-04T16:43:43.219Z,18.645484949832777
2023-05-04T16:55:07.437Z,22.4247491638796
2023-05-04T17:05:27.857Z,19.705685618729095
2023-05-04T17:16:22.271Z,17.819397993311036
2023-05-04T17:29:23.209Z,20.648829431438127
2023-05-04T17:35:43.938Z,25.588628762541806
2023-05-04T17:45:28.601Z,17.73913043478261
2023-05-04T17:51:49.027Z,20.839464882943144
2023-05-04T18:01:43.305Z,21.36454849498328
2023-05-04T18:13:45.665Z,22.153846153846153
2023-05-04T18:28:01.179Z,24.892976588628763
2023-05-04T18:34:23.570Z,22.043478260869566
2023-05-04T18:51:27.691Z,24.270903010033443
2023-05-04T18:57:45.759Z,26.193979933110366
2023-05-04T19:04:04.388Z,34.10702341137124
2023-05-04T19:10:22.218Z,23.795986622073578
2023-05-04T19:16:41.471Z,25.74916387959866
2023-05-04T19:25:35.046Z,28.48160535117057
2023-05-04T19:31:53.085Z,26.354515050167223
2023-05-04T19:45:32.370Z,34.357859531772576
2023-05-04T19:51:49.957Z,30.54515050167224
2023-05-04T20:02:31.442Z,30.193979933110366
2023-05-04T20:11:35.589Z,27.40468227424749
2023-05-04T20:17:55.593Z,30.127090301003346
2023-05-04T20:24:58.841Z,27.361204013377925
2023-05-04T20:31:16.920Z,28.401337792642142
2023-05-04T20:37:36.181Z,31.959866220735787
2023-05-04T20:43:59.576Z,30.989966555183948
2023-05-04T20:50:25.445Z,30.775919732441473
2023-05-04T20:56:46.393Z,35.187290969899664
2023-05-04T21:03:07.427Z,27.83277591973244
2023-05-04T21:09:28.173Z,30.391304347826086
2023-05-04T21:15:50.094Z,27.729096989966557
2023-05-04T21:22:10.186Z,37.16053511705686
2023-05-04T21:30:50.982Z,36.76588628762542
2023-05-04T21:37:14.612Z,33.23745819397993
2023-05-04T21:43:35.335Z,38.668896321070235
2023-05-04T21:51:55.964Z,45.752508361204015
2023-05-04T21:58:17.234Z,43.11371237458194
2023-05-04T22:04:38.624Z,47.297658862876254
2023-05-04T22:10:59.805Z,46.03344481605351
2023-05-04T22:23:08.105Z,63.20066889632107
2023-05-04T22:35:36.710Z,48.64548494983278
2023-05-04T22:48:59.675Z,57.33779264214047
2023-05-04T22:55:21.560Z,57.10702341137124
2023-05-04T23:01:43.892Z,48.37792642140468
2023-05-04T23:08:07.207Z,46.75585284280937
2023-05-04T23:14:28.984Z,50.096989966555185
2023-05-04T23:25:54.358Z,43.89297658862876
2023-05-04T23:32:16.429Z,45.575250836120404
2023-05-04T23:38:36.780Z,45.49498327759197
2023-05-04T23:44:58.205Z,49.903010033444815
2023-05-04T23:56:22.548Z,37.468227424749166
